Time;durP1;ratioP1;P1;durP2;ratioP2;P2;SDS_P1;SDS_P2;PMS_P1;PMS_P2;Temp;Humidity;BMP_temperature;BMP_pressure;BME280_temperature;BME280_humidity;BME280_pressure;Samples;Min_cycle;Max_cycle;Signal;HPM_P1;HPM_P2
2021/03/03 00:01:03;;;;;;;23.12;12.23;;;;;;;2.17;74.35;101253.25;1769832;81;21022;-74
2021/03/03 00:03:32;;;;;;;21.97;12.85;;;;;;;2.16;74.40;101250.25;1769877;80;21045;-73
2021/03/03 00:06:00;;;;;;;21.30;13.55;;;;;;;2.18;74.38;101256.23;1769790;80;20946;-73
2021/03/03 00:08:28;;;;;;;21.77;12.80;;;;;;;2.18;74.35;101246.77;1769931;81;21404;-74
2021/03/03 00:10:56;;;;;;;22.45;12.88;;;;;;;2.17;74.37;101254.09;1769883;79;21467;-74
2021/03/03 00:13:23;;;;;;;22.67;13.45;;;;;;;2.14;74.45;101248.98;1769770;81;20975;-73
2021/03/03 00:15:52;;;;;;;23.22;12.58;;;;;;;2.13;74.51;101246.40;1769874;80;20923;-74
2021/03/03 00:18:20;;;;;;;22.30;13.32;;;;;;;2.11;74.56;101250.30;1769866;81;20955;-73
2021/03/03 00:20:49;;;;;;;23.18;13.05;;;;;;;2.11;74.53;101249.00;1770000;80;20927;-73
2021/03/03 00:23:17;;;;;;;21.62;12.23;;;;;;;2.12;74.50;101241.67;1770049;81;21683;-76
2021/03/03 00:25:46;;;;;;;22.45;13.83;;;;;;;2.15;74.49;101242.06;1770106;81;21513;-73
2021/03/03 00:28:14;;;;;;;22.30;13.25;;;;;;;2.15;74.42;101244.20;1770017;81;20959;-72
2021/03/03 00:30:42;;;;;;;30.77;15.53;;;;;;;2.13;74.56;101241.23;1771216;79;21002;-74
2021/03/03 00:33:10;;;;;;;24.67;13.32;;;;;;;2.09;74.65;101243.03;1771312;80;20945;-73
2021/03/03 00:35:39;;;;;;;26.75;13.70;;;;;;;2.11;74.68;101246.41;1771826;79;21386;-76
2021/03/03 00:38:07;;;;;;;23.70;12.45;;;;;;;2.09;74.71;101249.49;1770392;81;20978;-75
2021/03/03 00:40:35;;;;;;;24.65;13.50;;;;;;;2.08;74.70;101251.64;1770242;81;21002;-75
2021/03/03 00:43:03;;;;;;;20.55;12.73;;;;;;;2.05;74.74;101243.94;1769980;81;20967;-75
2021/03/03 00:45:31;;;;;;;22.62;11.78;;;;;;;2.07;74.68;101250.80;1770175;81;21061;-75
2021/03/03 00:47:59;;;;;;;21.75;11.88;;;;;;;2.10;74.71;101252.92;1770097;81;21323;-75
2021/03/03 00:50:28;;;;;;;16.85;10.85;;;;;;;2.13;74.69;101259.34;1770211;81;21360;-75
2021/03/03 00:52:56;;;;;;;21.35;12.93;;;;;;;2.13;74.68;101255.01;1771518;81;20994;-71
2021/03/03 00:55:25;;;;;;;22.75;13.43;;;;;;;2.14;74.63;101263.20;1771465;81;21002;-71
2021/03/03 00:57:54;;;;;;;25.17;13.95;;;;;;;2.16;74.69;101255.43;1771291;81;21006;-70
2021/03/03 01:00:24;;;;;;;21.93;12.43;;;;;;;2.17;74.56;101260.56;1768939;80;22033;-75
2021/03/03 01:02:54;;;;;;;22.20;13.20;;;;;;;2.16;74.54;101257.57;1770037;79;21054;-73
2021/03/03 01:05:23;;;;;;;20.08;11.90;;;;;;;2.13;74.55;101261.48;1770011;81;21034;-73
2021/03/03 01:07:51;;;;;;;25.15;13.62;;;;;;;2.13;74.58;101267.95;1769972;81;21538;-73
2021/03/03 01:10:20;;;;;;;20.62;11.53;;;;;;;2.14;74.59;101268.38;1770083;81;20939;-73
2021/03/03 01:12:51;;;;;;;21.45;12.30;;;;;;;2.13;74.63;101261.92;1770069;80;21408;-75
2021/03/03 01:15:19;;;;;;;20.37;12.65;;;;;;;2.14;74.69;101272.70;1770117;80;21400;-75
2021/03/03 01:17:47;;;;;;;23.52;13.35;;;;;;;2.13;74.68;101267.95;1770125;81;21377;-74
2021/03/03 01:20:16;;;;;;;25.05;13.00;;;;;;;2.12;74.69;101282.22;1770006;79;20950;-74
2021/03/03 01:22:44;;;;;;;23.47;12.75;;;;;;;2.04;74.84;101277.98;1770002;79;21003;-74
2021/03/03 01:25:14;;;;;;;22.45;12.85;;;;;;;2.03;74.94;101289.22;1770020;81;21639;-74
2021/03/03 01:27:42;;;;;;;23.52;12.78;;;;;;;2.04;74.88;101280.57;1769973;81;21074;-75
2021/03/03 01:30:11;;;;;;;24.32;13.18;;;;;;;2.05;74.94;101287.92;1769988;81;21030;-74
2021/03/03 01:32:39;;;;;;;20.88;11.78;;;;;;;2.04;75.02;101290.92;1769965;79;20974;-74
2021/03/03 01:35:10;;;;;;;25.43;13.20;;;;;;;2.03;75.05;101288.38;1769978;79;20927;-74
2021/03/03 01:37:38;;;;;;;23.18;13.88;;;;;;;2.06;75.07;101302.55;1770061;81;22624;-75
2021/03/03 01:40:07;;;;;;;24.00;13.15;;;;;;;2.07;75.06;101297.81;1769963;81;21017;-73
2021/03/03 01:42:35;;;;;;;19.05;10.93;;;;;;;2.08;75.00;101304.23;1770057;81;21014;-75
2021/03/03 01:45:07;;;;;;;19.57;10.48;;;;;;;2.09;74.89;101299.94;1769943;81;21038;-75
2021/03/03 01:47:35;;;;;;;18.55;11.80;;;;;;;2.13;74.73;101299.44;1770061;81;20990;-73
2021/03/03 01:50:08;;;;;;;18.10;10.95;;;;;;;2.14;74.66;101305.89;1769975;81;22305;-73
2021/03/03 01:52:41;;;;;;;21.27;12.63;;;;;;;2.16;74.64;101300.27;1770007;81;21476;-74
2021/03/03 01:55:10;;;;;;;22.62;12.53;;;;;;;2.14;74.61;101309.77;1770004;81;20935;-74
2021/03/03 01:57:38;;;;;;;18.80;10.30;;;;;;;2.14;74.56;101312.81;1770035;81;21349;-74
2021/03/03 02:00:09;;;;;;;18.80;10.35;;;;;;;2.12;74.41;101315.85;1770010;81;21317;-74
2021/03/03 02:02:40;;;;;;;17.67;12.15;;;;;;;2.06;74.49;101314.19;1769997;81;21334;-73
2021/03/03 02:05:12;;;;;;;20.57;10.98;;;;;;;2.03;74.53;101321.56;1769975;81;20959;-73
2021/03/03 02:08:16;;;;;;;17.55;9.88;;;;;;;2.00;74.58;101321.61;1770024;81;20935;-73
2021/03/03 02:10:53;;;;;;;18.40;11.48;;;;;;;2.04;74.51;101332.75;1769994;79;21423;-72
2021/03/03 02:13:32;;;;;;;18.98;9.95;;;;;;;2.03;74.45;101335.78;1769989;81;21071;-73
2021/03/03 02:16:02;;;;;;;16.12;9.98;;;;;;;1.98;74.50;101338.00;1769899;81;21380;-73
2021/03/03 02:18:30;;;;;;;17.30;10.35;;;;;;;1.92;74.56;101345.86;1769922;79;20939;-72
2021/03/03 02:21:16;;;;;;;16.82;10.35;;;;;;;1.85;74.60;101342.05;1726437;81;20947;-74
2021/03/03 02:23:58;;;;;;;18.50;10.63;;;;;;;1.81;74.67;101351.16;1769927;79;20943;-75
2021/03/03 02:26:34;;;;;;;15.60;9.28;;;;;;;1.76;74.70;101355.54;1770048;81;20943;-73
2021/03/03 02:29:10;;;;;;;17.00;8.70;;;;;;;1.74;74.56;101356.84;1770079;81;21813;-73
2021/03/03 02:31:42;;;;;;;16.97;8.98;;;;;;;1.68;74.62;101359.93;1769922;79;20951;-75
2021/03/03 02:34:13;;;;;;;14.85;9.03;;;;;;;1.57;74.87;101362.19;1769806;80;21075;-72
2021/03/03 02:36:43;;;;;;;14.60;8.83;;;;;;;1.48;75.21;101361.00;1770036;79;21467;-73
2021/03/03 02:39:10;;;;;;;13.68;9.10;;;;;;;1.42;75.49;101367.52;1770052;81;20899;-74
2021/03/03 02:41:39;;;;;;;15.25;8.58;;;;;;;1.38;75.71;101373.58;1769914;79;21325;-74
2021/03/03 02:44:07;;;;;;;14.13;8.20;;;;;;;1.38;75.75;101370.58;1726270;81;20959;-74
2021/03/03 02:46:35;;;;;;;14.18;8.50;;;;;;;1.40;75.83;101371.84;1770001;79;21492;-73
2021/03/03 02:49:04;;;;;;;14.98;7.55;;;;;;;1.41;75.83;101377.45;1769895;81;21053;-74
2021/03/03 02:51:32;;;;;;;13.05;8.90;;;;;;;1.40;76.01;101384.76;1770049;81;21586;-74
2021/03/03 02:54:00;;;;;;;13.60;9.53;;;;;;;1.40;76.06;101388.64;1769932;81;21646;-74
2021/03/03 02:56:28;;;;;;;14.45;8.60;;;;;;;1.43;76.00;101390.77;1769882;79;20979;-75
2021/03/03 02:58:58;;;;;;;14.63;8.93;;;;;;;1.46;75.85;101393.75;1769923;79;20939;-73
2021/03/03 03:01:27;;;;;;;15.15;8.45;;;;;;;1.45;75.92;101399.36;1769971;81;20931;-73
2021/03/03 03:04:13;;;;;;;11.05;7.87;;;;;;;1.51;75.74;101399.72;1769914;79;21044;-73
2021/03/03 03:07:01;;;;;;;16.30;9.10;;;;;;;1.52;75.53;101396.73;1753649;81;21002;-72
2021/03/03 03:09:48;;;;;;;12.58;8.20;;;;;;;1.50;75.63;101402.34;1769882;79;21030;-73
2021/03/03 03:12:34;;;;;;;17.30;9.75;;;;;;;1.46;75.72;101409.26;1769866;81;21055;-73
2021/03/03 03:15:26;;;;;;;18.82;10.00;;;;;;;1.43;75.76;101412.73;1753530;79;20962;-71
2021/03/03 03:18:08;;;;;;;19.05;10.05;;;;;;;1.45;75.60;101421.77;1770065;81;21002;-73
2021/03/03 03:20:36;;;;;;;13.38;8.08;;;;;;;1.48;75.55;101423.02;1741715;79;21377;-73
2021/03/03 03:23:04;;;;;;;13.83;9.05;;;;;;;1.49;75.38;101426.05;1769916;81;21018;-72
2021/03/03 03:25:33;;;;;;;14.20;8.73;;;;;;;1.49;75.38;101431.22;1769899;81;20951;-73
2021/03/03 03:28:01;;;;;;;11.80;7.58;;;;;;;1.48;75.41;101426.91;1769880;80;20955;-76
2021/03/03 03:30:29;;;;;;;15.98;8.98;;;;;;;1.49;75.33;101425.16;1769875;81;21475;-75
2021/03/03 03:32:57;;;;;;;15.00;8.95;;;;;;;1.47;75.36;101431.66;1769907;81;21212;-74
2021/03/03 03:35:28;;;;;;;13.15;7.22;;;;;;;1.49;75.16;101440.67;1769829;80;21026;-73
2021/03/03 03:37:56;;;;;;;15.80;8.65;;;;;;;1.45;75.16;101435.55;1769947;79;20998;-73
2021/03/03 03:40:24;;;;;;;10.10;6.78;;;;;;;1.41;75.10;101431.71;1769864;80;20986;-73
2021/03/03 03:42:56;;;;;;;12.73;8.33;;;;;;;1.33;75.16;101438.22;1769946;81;21038;-74
2021/03/03 03:45:27;;;;;;;10.40;7.35;;;;;;;1.31;75.09;101440.41;1769588;81;21367;-74
2021/03/03 03:47:56;;;;;;;15.75;7.22;;;;;;;1.27;75.12;101438.30;1769886;79;21017;-74
2021/03/03 03:50:26;;;;;;;13.38;7.20;;;;;;;1.21;75.29;101441.77;1769885;79;21002;-75
2021/03/03 03:52:55;;;;;;;12.25;6.72;;;;;;;1.18;75.23;101444.84;1750552;81;21038;-75
2021/03/03 03:55:37;;;;;;;10.58;6.53;;;;;;;1.14;75.28;101447.02;1770174;81;21022;-75
2021/03/03 03:58:12;;;;;;;11.30;6.12;;;;;;;1.16;75.27;101446.13;1890060;76;22615;-76
2021/03/03 04:00:40;;;;;;;11.97;7.45;;;;;;;1.12;75.07;101446.17;1861086;77;20875;-75
2021/03/03 04:03:09;;;;;;;11.78;6.50;;;;;;;1.07;75.03;101451.78;1823209;78;21167;-76
2021/03/03 04:05:37;;;;;;;11.28;6.50;;;;;;;0.99;75.19;101447.98;1823209;78;20954;-75
2021/03/03 04:08:06;;;;;;;12.45;6.67;;;;;;;0.92;75.40;101447.16;1823102;78;21000;-74
2021/03/03 04:10:34;;;;;;;10.00;6.95;;;;;;;0.91;75.43;101448.45;1823246;78;20948;-75
2021/03/03 04:13:02;;;;;;;12.10;6.83;;;;;;;0.86;75.52;101454.94;1823301;78;21338;-74
2021/03/03 04:15:30;;;;;;;11.83;6.05;;;;;;;0.86;75.63;101458.81;1823165;78;21963;-76
2021/03/03 04:17:58;;;;;;;10.55;6.03;;;;;;;0.85;75.77;101462.28;1823265;78;20960;-75
2021/03/03 04:20:26;;;;;;;8.98;6.05;;;;;;;0.82;75.97;101458.00;1823275;78;20956;-74
2021/03/03 04:22:54;;;;;;;10.30;5.58;;;;;;;0.87;76.16;101464.83;1823073;78;21007;-74
2021/03/03 04:25:22;;;;;;;8.13;5.42;;;;;;;0.91;76.25;101477.73;1823178;78;21346;-75
2021/03/03 04:27:50;;;;;;;11.97;5.85;;;;;;;0.93;76.30;101477.27;1823257;78;22628;-75
2021/03/03 04:30:21;;;;;;;10.85;6.00;;;;;;;0.98;76.31;101481.14;1823113;78;20948;-76
2021/03/03 04:32:51;;;;;;;13.75;7.70;;;;;;;0.99;76.38;101488.86;1819056;78;20939;-73
2021/03/03 04:35:19;;;;;;;8.78;5.72;;;;;;;0.98;76.58;101489.73;1823150;78;21492;-74
2021/03/03 04:37:48;;;;;;;11.03;6.12;;;;;;;0.97;76.86;101493.61;1823083;78;20905;-74
2021/03/03 04:40:17;;;;;;;13.13;6.95;;;;;;;0.97;77.06;101490.59;1823182;78;22358;-74
2021/03/03 04:42:45;;;;;;;12.07;5.47;;;;;;;1.00;77.16;101497.05;1823040;78;21023;-74
2021/03/03 04:45:14;;;;;;;8.25;5.75;;;;;;;1.07;77.23;101506.91;1823143;78;20944;-74
2021/03/03 04:47:42;;;;;;;10.08;6.15;;;;;;;1.11;77.24;101517.64;1823144;78;21361;-73
2021/03/03 04:50:11;;;;;;;11.33;5.58;;;;;;;1.13;77.27;101518.91;1823229;78;21346;-73
2021/03/03 04:52:40;;;;;;;8.95;5.47;;;;;;;1.15;77.36;101521.05;1823227;78;21366;-74
2021/03/03 04:55:10;;;;;;;8.98;5.35;;;;;;;1.17;77.39;101525.33;1823064;78;21533;-72
2021/03/03 04:57:38;;;;;;;10.45;5.92;;;;;;;1.19;77.48;101528.77;1829622;78;20995;-74
2021/03/03 05:00:07;;;;;;;8.88;5.47;;;;;;;1.29;77.42;101535.16;1832400;78;20990;-74
2021/03/03 05:02:34;;;;;;;9.55;6.12;;;;;;;1.39;77.30;101541.98;1832401;78;21015;-75
2021/03/03 05:05:03;;;;;;;12.55;5.65;;;;;;;1.50;77.03;101538.89;1832373;78;21224;-72
2021/03/03 05:07:31;;;;;;;8.35;5.60;;;;;;;1.55;76.71;101546.61;1832297;78;20924;-74
2021/03/03 05:09:59;;;;;;;10.32;5.83;;;;;;;1.56;76.64;101545.75;1831687;78;20928;-73
2021/03/03 05:12:27;;;;;;;13.68;5.72;;;;;;;1.55;76.50;101549.19;1831797;78;20943;-74
2021/03/03 05:14:55;;;;;;;12.35;6.08;;;;;;;1.56;76.39;101562.11;1831879;78;20983;-72
2021/03/03 05:17:23;;;;;;;9.33;4.72;;;;;;;1.58;76.33;101561.67;1831720;78;21285;-73
2021/03/03 05:19:53;;;;;;;8.25;5.83;;;;;;;1.64;76.22;101563.33;1831702;78;20962;-75
2021/03/03 05:22:21;;;;;;;6.53;4.25;;;;;;;1.77;76.22;101567.98;1831920;78;21382;-74
2021/03/03 05:24:49;;;;;;;8.83;5.33;;;;;;;1.92;75.83;101568.30;1831763;78;20917;-75
2021/03/03 05:27:17;;;;;;;9.43;5.75;;;;;;;2.18;75.69;101572.78;1831905;78;20991;-75
2021/03/03 05:29:47;;;;;;;8.88;5.17;;;;;;;2.43;75.09;101574.67;1831956;78;21440;-76
2021/03/03 05:32:17;;;;;;;14.87;6.92;;;;;;;2.68;74.39;101584.75;1831710;78;21448;-75
2021/03/03 05:34:45;;;;;;;11.65;6.28;;;;;;;2.82;73.15;101581.54;1831838;78;21019;-76
2021/03/03 05:37:15;;;;;;;10.23;6.17;;;;;;;3.01;72.83;101579.59;1831782;77;20956;-77
2021/03/03 05:39:47;;;;;;;6.55;5.08;;;;;;;3.24;72.34;101580.56;1831973;78;21050;-78
2021/03/03 05:42:14;;;;;;;6.97;5.25;;;;;;;3.49;71.49;101581.50;1831912;78;21199;-77
2021/03/03 05:44:46;;;;;;;9.98;5.25;;;;;;;3.74;70.74;101594.96;1831734;78;20944;-76
2021/03/03 05:47:17;;;;;;;;;;;;;;;4.06;70.45;101586.63;1834630;78;21003;-77
2021/03/03 05:49:47;;;;;;;9.05;5.78;;;;;;;4.32;68.66;101585.31;1831754;78;20160;-72
2021/03/03 05:52:15;;;;;;;7.75;4.97;;;;;;;4.37;68.36;101597.77;1831823;78;21058;-72
2021/03/03 05:54:43;;;;;;;8.83;5.50;;;;;;;4.31;67.93;101601.77;1804090;78;21942;-75
2021/03/03 05:57:11;;;;;;;7.97;4.97;;;;;;;4.11;68.00;101600.81;1828295;78;20956;-76
2021/03/03 05:59:39;;;;;;;7.12;4.55;;;;;;;3.88;68.42;101604.66;1822368;78;20936;-77
2021/03/03 06:02:07;;;;;;;10.03;5.17;;;;;;;3.77;68.97;101610.47;1822581;78;20983;-77
2021/03/03 06:04:35;;;;;;;6.35;4.55;;;;;;;3.66;69.36;101616.27;1791226;78;20956;-81
2021/03/03 06:07:04;;;;;;;7.70;5.12;;;;;;;3.58;69.44;101620.28;1822960;78;21306;-80
2021/03/03 06:09:31;;;;;;;7.30;5.22;;;;;;;3.55;69.69;101631.98;1791023;78;20964;-78
2021/03/03 06:11:59;;;;;;;6.95;5.25;;;;;;;3.52;69.78;101633.33;1822523;78;21347;-82
2021/03/03 06:14:29;;;;;;;9.23;5.60;;;;;;;3.46;70.01;101639.45;1822440;78;20948;-80
2021/03/03 06:16:58;;;;;;;7.35;4.80;;;;;;;3.41;70.13;101636.52;1822573;78;20960;-83
2021/03/03 06:19:26;;;;;;;7.05;4.67;;;;;;;3.41;70.36;101643.00;1822497;78;21447;-81
2021/03/03 06:21:55;;;;;;;6.90;4.75;;;;;;;3.43;70.48;101644.69;1822555;78;21469;-82
2021/03/03 06:24:29;;;;;;;7.25;4.30;;;;;;;3.46;70.48;101641.19;1822445;78;20957;-83
2021/03/03 06:26:58;;;;;;;7.23;4.57;;;;;;;3.78;70.52;101644.63;1822582;78;20928;-82
2021/03/03 06:29:26;;;;;;;6.33;4.80;;;;;;;4.19;69.81;101636.59;1822601;78;21030;-82
2021/03/03 06:31:54;;;;;;;9.00;5.25;;;;;;;4.85;68.40;101641.03;1822564;78;21347;-81
2021/03/03 06:34:25;;;;;;;5.90;4.33;;;;;;;5.48;66.98;101650.11;1817896;78;20972;-82
2021/03/03 06:37:04;;;;;;;10.50;4.90;;;;;;;5.87;65.02;101652.67;1822525;78;20944;-82
2021/03/03 06:39:38;;;;;;;7.15;4.65;;;;;;;5.98;63.82;101643.77;1822602;78;20944;-82
2021/03/03 06:42:08;;;;;;;12.53;6.37;;;;;;;5.92;62.88;101649.08;1822744;78;20991;-82
2021/03/03 06:44:54;;;;;;;11.00;4.67;;;;;;;5.71;63.26;101639.17;1822805;78;22202;-83
2021/03/03 06:47:23;;;;;;;4.97;3.90;;;;;;;5.52;63.96;101647.41;1822617;78;20932;-83
2021/03/03 06:49:52;;;;;;;6.95;4.47;;;;;;;5.68;63.32;101644.45;1822834;78;21015;-82
2021/03/03 06:52:43;;;;;;;5.35;4.03;;;;;;;6.14;63.36;101651.20;1822819;78;20944;-83
2021/03/03 06:55:11;;;;;;;9.98;5.30;;;;;;;6.38;62.10;101642.77;1820399;78;21019;-81
2021/03/03 06:57:39;;;;;;;6.25;4.72;;;;;;;6.38;61.29;101642.77;1826423;78;21191;-82
2021/03/03 07:00:09;;;;;;;4.35;3.62;;;;;;;6.19;61.17;101635.85;1831737;78;21023;-83
2021/03/03 07:02:38;;;;;;;6.10;3.77;;;;;;;5.99;61.77;101638.11;1831962;78;20963;-85
2021/03/03 07:05:10;;;;;;;7.47;4.22;;;;;;;5.85;62.03;101639.72;1831737;78;20998;-82
2021/03/03 07:07:38;;;;;;;7.12;4.72;;;;;;;5.70;62.22;101642.22;1831735;78;20991;-84
2021/03/03 07:10:08;;;;;;;6.90;3.87;;;;;;;5.54;62.54;101639.12;1804329;78;21206;-83
2021/03/03 07:12:49;;;;;;;8.90;4.47;;;;;;;5.43;62.91;101641.56;1831863;78;20964;-82
2021/03/03 07:15:17;;;;;;;5.85;3.83;;;;;;;5.29;62.73;101636.64;1831889;78;21003;-83
2021/03/03 07:17:45;;;;;;;8.03;4.33;;;;;;;5.18;63.42;101632.55;1831997;78;20991;-83
2021/03/03 07:20:15;;;;;;;9.78;4.28;;;;;;;5.16;63.69;101630.41;1804392;78;21087;-83
2021/03/03 07:22:53;;;;;;;5.87;3.80;;;;;;;5.21;63.71;101631.61;1832010;78;22239;-84
2021/03/03 07:25:21;;;;;;;7.53;3.87;;;;;;;5.24;63.89;101636.73;1831698;78;20959;-84
2021/03/03 07:27:55;;;;;;;5.50;4.50;;;;;;;5.30;63.94;101634.02;1831956;78;20963;-84
2021/03/03 07:30:25;;;;;;;4.60;3.12;;;;;;;5.36;63.91;101632.59;1832320;78;21472;-86
2021/03/03 07:32:54;;;;;;;5.55;3.33;;;;;;;5.56;63.53;101637.34;1832159;78;20920;-85
2021/03/03 07:35:27;;;;;;;6.87;3.33;;;;;;;6.14;62.28;101631.67;1831052;78;21582;-86
2021/03/03 07:37:56;;;;;;;4.78;3.27;;;;;;;6.98;59.84;101637.64;1831733;78;21444;-84
2021/03/03 07:40:27;;;;;;;4.53;3.00;;;;;;;7.67;57.51;101619.94;1832640;78;21105;-84
2021/03/03 07:42:56;;;;;;;5.72;2.62;;;;;;;8.36;56.86;101625.48;1834567;78;21043;-84
2021/03/03 07:45:28;;;;;;;5.62;3.08;;;;;;;9.04;53.90;101634.38;1833467;78;21015;-85
2021/03/03 07:50:23;;;;;;;3.45;3.00;;;;;;;9.69;52.26;101630.59;1820622;77;22520;-84
2021/03/03 07:52:55;;;;;;;4.70;2.98;;;;;;;9.84;50.47;101623.89;1756541;81;20903;-80
2021/03/03 07:55:25;;;;;;;4.03;3.00;;;;;;;10.13;50.45;101624.83;1766312;81;21403;-81
2021/03/03 07:57:55;;;;;;;5.40;3.72;;;;;;;10.51;49.11;101630.70;1766163;81;20938;-77
2021/03/03 08:00:29;;;;;;;3.60;2.70;;;;;;;10.85;48.17;101623.96;1756726;81;20970;-80
2021/03/03 08:03:00;;;;;;;6.08;3.25;;;;;;;11.29;47.82;101623.23;1738444;81;21025;-82
2021/03/03 08:05:38;;;;;;;3.10;2.80;;;;;;;11.79;46.53;101615.19;1752446;81;20951;-74
2021/03/03 08:08:30;;;;;;;3.95;2.60;;;;;;;12.24;45.60;101615.99;1766331;81;22324;-74
2021/03/03 08:11:15;;;;;;;3.95;2.77;;;;;;;12.53;45.29;101619.38;1756501;81;21605;-75
2021/03/03 08:13:45;;;;;;;3.67;2.37;;;;;;;12.75;44.08;101623.89;1766277;81;21005;-76
2021/03/03 08:16:13;;;;;;;4.25;2.85;;;;;;;12.95;43.35;101625.93;1756532;81;20947;-73
2021/03/03 08:18:58;;;;;;;2.83;1.85;;;;;;;13.17;42.71;101626.46;1766278;81;20954;-76
2021/03/03 08:21:28;;;;;;;3.92;2.08;;;;;;;13.10;42.39;101630.37;1756558;81;21795;-76
2021/03/03 08:24:00;;;;;;;2.60;2.10;;;;;;;13.16;42.17;101632.68;1766176;81;21033;-74
2021/03/03 08:26:32;;;;;;;2.25;2.05;;;;;;;13.37;41.34;101619.28;1756620;81;21436;-74
2021/03/03 08:29:22;;;;;;;3.85;2.00;;;;;;;13.59;40.93;101621.56;1766297;81;20931;-74
2021/03/03 08:31:51;;;;;;;2.50;1.95;;;;;;;13.74;40.30;101627.73;1756585;81;20999;-78
2021/03/03 08:34:20;;;;;;;3.00;1.65;;;;;;;13.94;40.15;101621.31;1766295;81;21219;-79
2021/03/03 08:36:54;;;;;;;2.75;2.15;;;;;;;14.09;39.65;101623.05;1756457;81;20978;-73
2021/03/03 08:39:24;;;;;;;4.37;2.62;;;;;;;14.17;39.24;101634.49;1766499;81;20942;-77
2021/03/03 08:41:53;;;;;;;4.90;2.50;;;;;;;14.11;39.37;101626.45;1756602;81;20939;-75
2021/03/03 08:44:22;;;;;;;9.28;2.37;;;;;;;14.17;38.88;101630.53;1766255;81;21305;-75
2021/03/03 08:46:51;;;;;;;3.27;2.10;;;;;;;13.91;39.37;101630.25;1756599;81;21822;-75
2021/03/03 08:49:25;;;;;;;4.90;1.87;;;;;;;13.77;39.98;101641.60;1761664;81;21042;-73
2021/03/03 08:52:11;;;;;;;2.95;1.85;;;;;;;13.70;39.70;101638.09;1748336;82;21356;-76
2021/03/03 08:54:43;;;;;;;3.72;2.02;;;;;;;13.70;39.70;101638.09;1751772;81;20951;-74
2021/03/03 08:57:32;;;;;;;3.02;2.10;;;;;;;13.27;39.96;101653.14;1745891;81;20942;-76
2021/03/03 09:00:01;;;;;;;2.90;1.90;;;;;;;12.94;40.36;101655.81;1748210;81;22546;-76
2021/03/03 09:02:37;;;;;;;2.67;1.60;;;;;;;12.79;40.99;101660.97;1745248;81;21103;-75
2021/03/03 09:05:10;;;;;;;2.35;1.80;;;;;;;12.64;41.00;101659.98;1752195;82;21468;-76
2021/03/03 09:07:38;;;;;;;3.20;1.50;;;;;;;12.21;41.55;101662.18;1745282;82;21022;-75
2021/03/03 09:10:10;;;;;;;5.33;2.42;;;;;;;11.62;42.41;101668.06;1752177;82;21098;-75
2021/03/03 09:12:43;;;;;;;4.58;2.55;;;;;;;11.12;43.91;101679.17;1745237;82;21479;-77
2021/03/03 09:15:13;;;;;;;6.95;2.12;;;;;;;10.76;44.95;101681.20;1729552;82;20958;-75
2021/03/03 09:17:45;;;;;;;4.53;1.60;;;;;;;10.47;45.71;101691.64;1752298;82;21361;-74
2021/03/03 09:20:18;;;;;;;4.62;2.20;;;;;;;10.27;45.62;101691.56;1745313;82;20947;-75
2021/03/03 09:22:47;;;;;;;3.05;1.55;;;;;;;10.04;46.36;101679.41;1752176;82;21053;-76
2021/03/03 09:25:20;;;;;;;3.67;2.08;;;;;;;9.79;46.46;101693.50;1745330;82;21341;-78
2021/03/03 09:27:54;;;;;;;2.02;1.70;;;;;;;9.36;47.06;101696.47;1752163;82;21018;-76
2021/03/03 09:30:24;;;;;;;3.37;2.25;;;;;;;9.01;48.02;101701.23;1745388;82;20959;-76
2021/03/03 09:32:53;;;;;;;4.25;2.15;;;;;;;8.79;48.69;101708.98;1743697;82;20936;-77
2021/03/03 09:35:29;;;;;;;3.37;2.00;;;;;;;8.61;49.37;101702.62;1745419;82;22542;-77
2021/03/03 09:37:58;;;;;;;3.98;1.70;;;;;;;8.52;48.67;101698.19;1814805;79;21367;-76
2021/03/03 09:40:33;;;;;;;6.87;1.90;;;;;;;8.65;49.49;101706.86;1814778;79;21467;-77
2021/03/03 09:43:01;;;;;;;2.62;2.10;;;;;;;8.65;49.43;101716.47;1814726;79;20943;-75
2021/03/03 09:45:30;;;;;;;2.75;1.98;;;;;;;8.65;49.41;101716.01;1814711;78;21026;-78
2021/03/03 09:47:58;;;;;;;4.37;2.50;;;;;;;8.61;49.42;101715.70;1814757;79;21121;-75
2021/03/03 09:50:30;;;;;;;3.77;2.10;;;;;;;8.59;49.05;101712.75;1814650;78;21379;-74
2021/03/03 09:52:59;;;;;;;7.80;1.70;;;;;;;8.80;49.04;101721.14;1815379;78;21022;-74
2021/03/03 09:55:34;;;;;;;4.12;2.22;;;;;;;8.89;48.01;101717.34;1815631;78;20994;-75
2021/03/03 09:58:03;;;;;;;;;;;;;;;9.35;47.04;101699.98;1817726;79;21345;-73
2021/03/03 10:00:37;;;;;;;3.15;1.95;;;;;;;9.59;46.60;101700.82;1814943;79;20563;-77
2021/03/03 10:03:14;;;;;;;3.95;1.85;;;;;;;9.75;46.47;101711.55;1815042;79;22190;-75
2021/03/03 10:05:43;;;;;;;1.95;1.32;;;;;;;9.88;46.31;101709.31;1814838;79;20962;-73
2021/03/03 10:08:13;;;;;;;4.22;1.45;;;;;;;10.02;45.04;101706.14;1814890;78;21499;-73
2021/03/03 10:10:44;;;;;;;4.85;1.95;;;;;;;10.04;44.85;101706.47;1814808;79;20935;-73
2021/03/03 10:13:22;;;;;;;1.87;1.17;;;;;;;10.09;44.87;101701.91;1815111;78;20963;-72
2021/03/03 10:15:50;;;;;;;3.05;1.65;;;;;;;10.14;45.05;101710.43;1814821;79;22365;-71
2021/03/03 10:18:21;;;;;;;1.77;0.95;;;;;;;10.04;43.89;101698.60;1814719;78;20979;-72
2021/03/03 10:20:55;;;;;;;1.22;0.95;;;;;;;9.80;43.21;101701.73;1814749;78;21420;-75
2021/03/03 10:23:28;;;;;;;3.30;1.22;;;;;;;9.54;42.62;101710.16;1814813;78;20954;-73
2021/03/03 10:26:05;;;;;;;3.35;1.72;;;;;;;9.44;43.36;101704.02;1814953;78;21428;-75
2021/03/03 10:28:35;;;;;;;2.12;1.07;;;;;;;9.28;44.60;101705.91;1814701;78;22130;-75
2021/03/03 10:31:05;;;;;;;1.85;1.27;;;;;;;9.06;44.02;101712.83;1814660;79;20952;-73
2021/03/03 10:33:39;;;;;;;2.15;0.80;;;;;;;8.82;44.56;101706.25;1814808;79;21357;-74
2021/03/03 10:36:22;;;;;;;3.52;1.25;;;;;;;8.74;44.29;101703.07;1814697;79;21125;-75
2021/03/03 10:38:55;;;;;;;3.83;1.17;;;;;;;8.63;44.32;101707.81;1814702;79;20926;-74
2021/03/03 10:41:35;;;;;;;2.52;1.07;;;;;;;8.50;44.62;101709.98;1814688;79;21128;-73
2021/03/03 10:44:05;;;;;;;0.60;0.60;;;;;;;8.30;44.44;101713.23;1814634;79;21396;-77
2021/03/03 10:46:33;;;;;;;3.85;1.05;;;;;;;8.39;43.91;101713.38;1814690;78;20954;-73
2021/03/03 10:49:14;;;;;;;1.95;1.10;;;;;;;8.47;44.71;101708.34;1814631;79;20907;-73
2021/03/03 10:51:43;;;;;;;3.10;1.67;;;;;;;8.59;44.35;101708.83;1814647;78;20883;-73
2021/03/03 10:54:12;;;;;;;2.35;1.15;;;;;;;8.78;44.80;101710.33;1814188;78;22694;-74
2021/03/03 10:56:41;;;;;;;3.80;0.93;;;;;;;9.12;44.07;101703.46;1814722;78;20966;-74
2021/03/03 10:59:27;;;;;;;1.60;0.90;;;;;;;9.36;42.91;101717.84;1814622;78;21407;-74
2021/03/03 11:01:57;;;;;;;3.15;1.30;;;;;;;9.64;42.07;101719.82;1814636;79;21010;-74
2021/03/03 11:04:45;;;;;;;3.67;0.90;;;;;;;10.02;42.04;101717.93;1814644;79;21093;-75
2021/03/03 11:07:15;;;;;;;2.00;0.82;;;;;;;10.50;41.08;101701.14;1814670;79;21241;-77
2021/03/03 11:09:52;;;;;;;2.00;0.72;;;;;;;10.93;39.33;101711.93;1814598;79;21014;-74
2021/03/03 11:12:25;;;;;;;3.87;1.12;;;;;;;10.86;39.23;101706.56;1814710;78;20986;-76
2021/03/03 11:14:54;;;;;;;1.73;1.23;;;;;;;10.51;38.02;101704.98;1814901;78;20931;-78
2021/03/03 11:17:22;;;;;;;2.27;0.62;;;;;;;10.11;38.51;101712.31;1814743;78;20915;-76
2021/03/03 11:19:50;;;;;;;2.20;1.17;;;;;;;9.82;39.82;101709.55;1814635;78;21420;-74
2021/03/03 11:22:19;;;;;;;2.40;1.00;;;;;;;9.50;40.22;101711.66;1814587;79;21642;-73
2021/03/03 11:24:47;;;;;;;3.90;0.62;;;;;;;9.30;40.90;101710.63;1814685;78;21408;-73
2021/03/03 11:27:15;;;;;;;1.80;0.70;;;;;;;9.11;41.55;101712.20;1814651;79;20891;-75
2021/03/03 11:29:43;;;;;;;1.87;0.98;;;;;;;8.95;41.84;101720.22;1814622;78;20967;-74
2021/03/03 11:32:13;;;;;;;2.67;0.68;;;;;;;8.82;42.33;101718.02;1814145;79;21203;-73
2021/03/03 11:34:41;;;;;;;2.52;1.00;;;;;;;8.71;41.84;101717.11;1814542;78;20962;-74
2021/03/03 11:37:10;;;;;;;1.12;0.70;;;;;;;8.71;42.05;101714.49;1814663;79;20949;-73
2021/03/03 11:39:38;;;;;;;1.67;0.82;;;;;;;8.67;42.92;101718.12;1814595;78;21009;-75
2021/03/03 11:42:06;;;;;;;2.05;1.07;;;;;;;8.57;43.12;101720.63;1814625;78;21045;-74
2021/03/03 11:44:36;;;;;;;1.80;0.82;;;;;;;8.50;42.82;101729.59;1814451;79;21793;-72
2021/03/03 11:47:04;;;;;;;1.87;0.88;;;;;;;8.60;42.84;101726.20;1814572;78;21376;-72